Aviation Digital Data Service (ADDS)

Output produced by TAFs form (1535 UTC 31 October 2014)
found at http://aviationweather.gov/adds/tafs/
 
KASE 311120Z 3112/0112 19003KT P6SM FEW250 
     FM311800 24008KT P6SM SCT250 
     FM010100 19005KT P6SM BKN200